Buoy 54955

sailwx.info

Track history (hours):
 
Tides and Currents Weather Stations Pressure Air Temp Water Temp Dewpoint Dewpoint Depression Visibility Wind Speed Wind Dir Waves Ship Positions

Drifting buoy 54955

Last reported at 2017-Nov-22 12:00 UTC. Time now 2017-Nov-22 13:13 UTC.
Position S 34°17' W 140°10'.

Barometer 1016.8 mb
Water temperature 17.7 ° C

Date/timePositionNaut miles runAvg speedWind from/ knotsBaromVisibWave heightAir tempDewpointWater temp
2017-Nov-22 12:00S 34°17' W 140°10'1 1.2 1016.8 17.7
2017-Nov-22 11:00S 34°16' W 140°11'1 0.4 1017.2 17.7
2017-Nov-22 08:00S 34°15' W 140°12'1 1.2 1019.5 17.7
2017-Nov-22 07:00S 34°14' W 140°13'1 0.8 1019.6 17.7
2017-Nov-22 06:00S 34°14' W 140°13'0 0.0 1019.5 17.7
2017-Nov-22 05:00S 34°14' W 140°13'1 1.3 1019.0 17.7
2017-Nov-22 04:00S 34°13' W 140°13'2 2.4 1018.8 17.6
2017-Nov-22 03:00S 34°10' W 140°13'0 0.0 1018.4 17.6
2017-Nov-22 02:00S 34°10' W 140°13'3 3.0 1018.0 17.6
2017-Nov-22 01:00S 34°07' W 140°14'0 0.0 1018.1 17.8
2017-Nov-22 00:00S 34°07' W 140°14'1 0.2 1018.1 17.9
2017-Nov-21 18:00S 34°07' W 140°15'1 0.8 1020.4 17.7
2017-Nov-21 17:00S 34°06' W 140°14'1 1.2 1020.6 17.7
2017-Nov-21 16:00S 34°05' W 140°16'2 2.1 1020.6 17.7
2017-Nov-21 15:00S 34°04' W 140°17'0 0.0 1020.5 17.7
2017-Nov-21 14:00S 34°04' W 140°17'0 0.0 1020.3 17.7
2017-Nov-21 13:00S 34°04' W 140°17'0 0.0 1020.3 17.7
2017-Nov-21 12:00S 34°04' W 140°17'1 0.8 1020.5 17.8
2017-Nov-21 11:00S 34°03' W 140°17'1 0.6 1021.2 17.8
2017-Nov-21 10:00S 34°02' W 140°17'2 0.6 1021.6 17.8
2017-Nov-21 07:00S 34°01' W 140°18'1 0.6 1023.1 17.8
2017-Nov-21 06:00S 34°00' W 140°18'1 1.2 1023.0 17.8
2017-Nov-21 05:00S 33°59' W 140°18'1 0.8 1023.0 17.8
2017-Nov-21 04:00S 33°58' W 140°19'0 0.5 1022.8 17.9
2017-Nov-21 03:00S 33°58' W 140°18'1 1.3 1022.7 17.9
2017-Nov-21 02:00S 33°57' W 140°17'3 3.2 1022.8 17.9
2017-Nov-21 01:00S 33°54' W 140°19'1 0.2 1022.8 17.9
2017-Nov-20 19:00S 33°53' W 140°20'1 1.2 1024.3 17.8
2017-Nov-20 18:00S 33°54' W 140°19'1 0.6 1024.4 17.8
2017-Nov-20 17:00S 33°53' W 140°19'1 0.8 1024.6 17.8
2017-Nov-20 16:00S 33°53' W 140°19'1 0.6 1024.8 17.8
2017-Nov-20 15:00S 33°52' W 140°19'1 0.6 1024.7 17.8
2017-Nov-20 14:00S 33°52' W 140°19'0 0.0 1024.5 17.8
2017-Nov-20 12:00S 33°52' W 140°19'1 0.8 1024.6 17.8
2017-Nov-20 11:00S 33°51' W 140°20'0 0.0 1024.9 17.9
2017-Nov-20 10:00S 33°51' W 140°20'2 0.6 1025.5 17.9
2017-Nov-20 07:00S 33°49' W 140°20'1 1.2 1026.6 17.9
2017-Nov-20 06:00S 33°49' W 140°19'0 0.0 1026.5 17.9
2017-Nov-20 05:00S 33°49' W 140°19'1 0.8 1026.0 17.9
2017-Nov-20 04:00S 33°48' W 140°20'2 1.6 1025.4 17.9
2017-Nov-20 03:00S 33°47' W 140°18'0 0.0 1025.3 18.0
2017-Nov-20 02:00S 33°47' W 140°18'1 0.8 1025.3 18.0
2017-Nov-20 01:00S 33°48' W 140°17'0 0.0 1025.4 18.1
2017-Nov-20 00:00S 33°48' W 140°17'0 0.0 1025.7 18.1
2017-Nov-19 23:00S 33°48' W 140°17'1 0.3 1026.0 17.9
2017-Nov-19 19:00S 33°49' W 140°17'0 0.5 1026.8 17.6
2017-Nov-19 18:00S 33°49' W 140°18'0 0.5 1026.7 17.5
2017-Nov-19 17:00S 33°49' W 140°19'0 0.0 1026.7 17.5
2017-Nov-19 16:00S 33°49' W 140°19'1 0.8 1026.6 17.5
2017-Nov-19 15:00S 33°49' W 140°19'0 0.5 1026.2 17.5
2017-Nov-19 14:00S 33°49' W 140°19'0 0.0 1025.7 17.5
2017-Nov-19 13:00S 33°49' W 140°19'1 0.6 1025.6 17.5
2017-Nov-19 12:00S 33°48' W 140°19'0 0.0 1025.6 17.5
2017-Nov-19 11:00S 33°48' W 140°19'0 0.0 1025.7 17.5
2017-Nov-19 10:00S 33°48' W 140°19'2 0.8 1026.1 17.6
2017-Nov-19 08:00S 33°49' W 140°20'1 0.8 1027.1 17.6
2017-Nov-19 07:00S 33°49' W 140°19'0 0.0 1027.1 17.6
2017-Nov-19 06:00S 33°49' W 140°19'1 1.0 1026.8 17.6
2017-Nov-19 05:00S 33°49' W 140°20'0 0.5 1026.2 17.7
2017-Nov-19 04:00S 33°49' W 140°20'0 0.0 1026.2 17.8
2017-Nov-19 03:00S 33°49' W 140°20'0 0.0 1025.9 17.8
2017-Nov-19 02:00S 33°49' W 140°20'0 0.0 1025.8 17.9
2017-Nov-19 01:00S 33°49' W 140°20'0 0.0 1025.6 17.8
2017-Nov-19 00:00S 33°49' W 140°20'0 0.0 1025.7 17.8
2017-Nov-18 23:00S 33°49' W 140°20'1 0.3 1026.4 17.7
2017-Nov-18 19:00S 33°50' W 140°19'1 1.2 1027.3 17.4
2017-Nov-18 18:00S 33°49' W 140°19'2 1.6 1027.1 17.4
2017-Nov-18 17:00S 33°50' W 140°20'0 0.0 1027.2 17.4
2017-Nov-18 16:00S 33°50' W 140°20'0 0.5 1026.9 17.4
2017-Nov-18 15:00S 33°50' W 140°21'1 0.8 1026.6 17.4
2017-Nov-18 14:00S 33°49' W 140°20'1 0.6 1026.3 17.4
2017-Nov-18 13:00S 33°50' W 140°20'0 0.0 1026.0 17.4
2017-Nov-18 12:00S 33°50' W 140°20'0 0.0 1026.2 17.4
2017-Nov-18 11:00S 33°50' W 140°20'1 1.2 1026.6 17.5
2017-Nov-18 10:00S 33°50' W 140°22'1 0.3 1026.9 17.5
2017-Nov-18 07:00S 33°50' W 140°21'0 0.5 1027.9 17.6
2017-Nov-18 06:00S 33°50' W 140°22'0 0.0 1027.8 17.6
2017-Nov-18 05:00S 33°50' W 140°22'0 0.5 1027.0 17.6
2017-Nov-18 04:00S 33°50' W 140°21'0 0.5 1026.7 17.6
2017-Nov-18 03:00S 33°50' W 140°20'0 0.5 1026.6 17.6
2017-Nov-18 02:00S 33°50' W 140°21'0 0.5 1026.2 17.7
2017-Nov-18 01:00S 33°50' W 140°20'0 0.0 1026.0 17.7
2017-Nov-18 00:00S 33°50' W 140°20'0 0.0 1026.3 17.8
2017-Nov-17 23:00S 33°50' W 140°20'1 0.2 1026.9 17.7
2017-Nov-17 19:00S 33°50' W 140°20'0 0.0 1027.6 17.8
2017-Nov-17 18:00S 33°50' W 140°20'0 0.0 1027.8 17.8
2017-Nov-17 17:00S 33°50' W 140°20'0 0.5 1027.5 17.8
2017-Nov-17 16:00S 33°50' W 140°20'1 1.0 1027.1 17.8
2017-Nov-17 15:00S 33°50' W 140°19'0 0.5 1026.4 17.8
2017-Nov-17 14:00S 33°50' W 140°20'1 0.6 1025.7 17.8
2017-Nov-17 13:00S 33°50' W 140°20'0 0.0 1025.1 17.9
2017-Nov-17 12:00S 33°50' W 140°20'0 0.0 1024.8 17.9
2017-Nov-17 11:00S 33°50' W 140°20'3 0.9 1024.7 17.9
2017-Nov-17 08:00S 33°52' W 140°17'0 0.5 1024.9 17.9
2017-Nov-17 07:00S 33°52' W 140°18'1 1.2 1024.5 18.0
2017-Nov-17 06:00S 33°52' W 140°17'0 0.0 1024.1 18.0
2017-Nov-17 05:00S 33°52' W 140°17'1 1.0 1023.4 18.0
2017-Nov-17 04:00S 33°52' W 140°18'1 0.6 1022.6 18.0
2017-Nov-17 03:00S 33°53' W 140°18'1 0.6 1021.9 18.0
2017-Nov-17 02:00S 33°53' W 140°18'1 0.8 1021.1 18.1
2017-Nov-17 01:00S 33°53' W 140°19'0 0.0 1020.6 18.1
2017-Nov-17 00:00S 33°53' W 140°19'0 0.0 1020.1 18.1
2017-Nov-16 23:00S 33°53' W 140°19'1 0.2 1020.0 18.1
2017-Nov-16 18:00S 33°53' W 140°18'0 0.0 1017.7 17.9
2017-Nov-16 17:00S 33°53' W 140°18'0 0.5 1017.2 17.9
2017-Nov-16 16:00S 33°53' W 140°17'1 0.8 1016.3 17.8
2017-Nov-16 15:00S 33°54' W 140°17'0 0.0 1015.5 17.8
2017-Nov-16 14:00S 33°54' W 140°17'1 0.8 1014.4 17.8
2017-Nov-16 13:00S 33°53' W 140°16'1 0.6 1013.4 17.8
2017-Nov-16 11:00S 33°55' W 140°17'3 0.6 1012.1 17.9
2017-Nov-16 07:00S 33°57' W 140°18'1 0.6 1011.0 17.9
2017-Nov-16 06:00S 33°58' W 140°18'1 0.8 1010.6 17.9
2017-Nov-16 05:00S 33°58' W 140°19'2 1.6 1009.9 17.9
2017-Nov-16 04:00S 33°59' W 140°20'1 0.8 1009.6 18.0
2017-Nov-16 03:00S 33°58' W 140°21'0 0.0 1008.8 18.0
2017-Nov-16 02:00S 33°58' W 140°21'2 1.6 1009.0 18.0
2017-Nov-16 01:00S 33°57' W 140°22'0 0.0 1008.6 18.0
2017-Nov-16 00:00S 33°57' W 140°22'0 0.0 1008.9 18.0
2017-Nov-15 23:00S 33°57' W 140°22'3 1.2 1009.9 18.1
2017-Nov-15 20:00S 33°55' W 140°26'1 1.0 1011.8 18.0
2017-Nov-15 19:00S 33°55' W 140°27'0 0.0 1012.3 18.0
2017-Nov-15 18:00S 33°55' W 140°27'1 1.0 1012.2 17.9
2017-Nov-15 17:00S 33°55' W 140°28'1 1.2 1012.4 17.9
2017-Nov-15 16:00S 33°54' W 140°28'2 1.9 1012.5 17.9
2017-Nov-15 15:00S 33°53' W 140°30'0 0.0 1012.1 17.9
2017-Nov-15 13:00S 33°53' W 140°30'1 1.3 1011.6 18.0
2017-Nov-15 12:00S 33°52' W 140°29'0 0.0 1011.7 18.0
2017-Nov-15 11:00S 33°52' W 140°29'2 0.7 1012.2 18.0
2017-Nov-15 08:00S 33°51' W 140°32'0 0.5 1013.7 18.0
2017-Nov-15 07:00S 33°51' W 140°31'0 0.5 1013.9 18.0
2017-Nov-15 06:00S 33°51' W 140°32'0 0.0 1012.8 17.9
2017-Nov-15 05:00S 33°51' W 140°32'2 2.0 1012.5 18.0
2017-Nov-15 04:00S 33°51' W 140°34'0 0.5 1013.0 18.0
2017-Nov-15 03:00S 33°51' W 140°35'1 1.2 1013.4 18.0
2017-Nov-15 02:00S 33°50' W 140°36'1 1.5 1013.3 18.0
2017-Nov-15 01:00S 33°50' W 140°38'0 0.0 1013.4 18.0
2017-Nov-15 00:00S 33°50' W 140°38'5 1.0 1013.2 18.0
2017-Nov-14 19:00S 33°47' W 140°42'1 0.6 1014.7 18.0
2017-Nov-14 18:00S 33°46' W 140°42'1 1.2 1014.8 17.9
2017-Nov-14 17:00S 33°46' W 140°43'1 0.6 1014.9 17.8
2017-Nov-14 16:00S 33°45' W 140°43'1 0.6 1014.8 17.8
2017-Nov-14 15:00S 33°44' W 140°43'1 1.0 1014.4 17.7
2017-Nov-14 14:00S 33°44' W 140°44'1 0.8 1014.2 17.7
2017-Nov-14 13:00S 33°44' W 140°45'0 0.0 1013.9 17.8
2017-Nov-14 12:00S 33°44' W 140°45'0 0.0 1013.4 17.8
2017-Nov-14 11:00S 33°44' W 140°45'1 0.4 1014.0 17.9
2017-Nov-14 08:00S 33°43' W 140°46'0 0.5 1015.4 17.9
2017-Nov-14 07:00S 33°43' W 140°47'1 0.8 1015.2 18.0
2017-Nov-14 06:00S 33°44' W 140°47'0 0.5 1015.3 18.0
2017-Nov-14 05:00S 33°44' W 140°48'2 1.6 1014.8 18.0
2017-Nov-14 04:00S 33°43' W 140°50'1 1.2 1014.4 18.1
2017-Nov-14 03:00S 33°44' W 140°51'1 0.6 1014.1 18.3
2017-Nov-14 02:00S 33°43' W 140°51'1 1.5 1014.1 18.7
2017-Nov-14 01:00S 33°43' W 140°53'7 6.6 1014.0 18.9
2017-Nov-14 00:00S 33°38' W 140°58'0 0.0 1014.2 18.8
2017-Nov-13 19:00S 33°38' W 140°58'1 1.3 1014.8 18.0
2017-Nov-13 18:00S 33°37' W 140°59'0 0.0 1014.7 17.9
2017-Nov-13 17:00S 33°37' W 140°59'1 0.8 1014.3 17.6
2017-Nov-13 16:00S 33°37' W 140°58'0 0.5 1014.0 17.6
2017-Nov-13 15:00S 33°37' W 140°58'0 0.0 1013.7 17.6
2017-Nov-13 14:00S 33°37' W 140°58'0 0.0 1013.5 17.6
2017-Nov-13 13:00S 33°37' W 140°58'0 0.0 1013.6 17.6
2017-Nov-13 12:00S 33°37' W 140°58'0 0.0 1013.8 17.6
2017-Nov-13 11:00S 33°37' W 140°58'1 0.2 1013.7 17.6
2017-Nov-13 07:00S 33°37' W 140°59'0 0.5 1014.7 17.6
2017-Nov-13 06:00S 33°37' W 140°59'1 0.8 1014.4 17.7
2017-Nov-13 05:00S 33°37' W 141°00'2 1.6 1013.7 17.7
2017-Nov-13 04:00S 33°37' W 141°02'0 0.0 1014.0 17.8
2017-Nov-13 03:00S 33°37' W 141°02'1 1.2 1013.3 17.8
2017-Nov-13 02:00S 33°36' W 141°03'0 0.0 1013.9 17.9
2017-Nov-13 01:00S 33°36' W 141°03'0 0.0 1013.9 17.8
2017-Nov-13 00:00S 33°36' W 141°03'6 1.2 1014.4 17.8
2017-Nov-12 19:00S 33°30' W 141°04'1 1.3 1015.4 17.7
2017-Nov-12 18:00S 33°29' W 141°03'1 0.8 1014.7 17.4
2017-Nov-12 17:00S 33°28' W 141°02'0 0.0 1015.1 17.3
2017-Nov-12 16:00S 33°28' W 141°02'0 0.0 1014.9 17.2
2017-Nov-12 15:00S 33°28' W 141°02'0 0.0 1014.0 17.2
2017-Nov-12 14:00S 33°28' W 141°02'1 0.8 1013.9 17.2
2017-Nov-12 13:00S 33°29' W 141°02'1 0.8 1013.5 17.2
2017-Nov-12 12:00S 33°28' W 141°02'   1013.1 17.3
Track history (hours):
 
Tides and Currents Weather Stations Pressure Air Temp Water Temp Dewpoint Dewpoint Depression Visibility Wind Speed Wind Dir Waves Ship Positions

Drifting buoy 54955

Last reported at 2017-Nov-22 12:00 UTC. Time now 2017-Nov-22 13:13 UTC.
Position S 34°17' W 140°10'.

Barometer 1016.8 mb
Water temperature 17.7 ° C

Date/timePositionNaut miles runAvg speedWind from/ knotsBaromVisibWave heightAir tempDewpointWater temp
2017-Nov-22 12:00S 34°17' W 140°10'1 1.2 1016.8 17.7
2017-Nov-22 11:00S 34°16' W 140°11'1 0.4 1017.2 17.7
2017-Nov-22 08:00S 34°15' W 140°12'1 1.2 1019.5 17.7
2017-Nov-22 07:00S 34°14' W 140°13'1 0.8 1019.6 17.7
2017-Nov-22 06:00S 34°14' W 140°13'0 0.0 1019.5 17.7
2017-Nov-22 05:00S 34°14' W 140°13'1 1.3 1019.0 17.7
2017-Nov-22 04:00S 34°13' W 140°13'2 2.4 1018.8 17.6
2017-Nov-22 03:00S 34°10' W 140°13'0 0.0 1018.4 17.6
2017-Nov-22 02:00S 34°10' W 140°13'3 3.0 1018.0 17.6
2017-Nov-22 01:00S 34°07' W 140°14'0 0.0 1018.1 17.8
2017-Nov-22 00:00S 34°07' W 140°14'1 0.2 1018.1 17.9
2017-Nov-21 18:00S 34°07' W 140°15'1 0.8 1020.4 17.7
2017-Nov-21 17:00S 34°06' W 140°14'1 1.2 1020.6 17.7
2017-Nov-21 16:00S 34°05' W 140°16'2 2.1 1020.6 17.7
2017-Nov-21 15:00S 34°04' W 140°17'0 0.0 1020.5 17.7
2017-Nov-21 14:00S 34°04' W 140°17'0 0.0 1020.3 17.7
2017-Nov-21 13:00S 34°04' W 140°17'0 0.0 1020.3 17.7
2017-Nov-21 12:00S 34°04' W 140°17'1 0.8 1020.5 17.8
2017-Nov-21 11:00S 34°03' W 140°17'1 0.6 1021.2 17.8
2017-Nov-21 10:00S 34°02' W 140°17'2 0.6 1021.6 17.8
2017-Nov-21 07:00S 34°01' W 140°18'1 0.6 1023.1 17.8
2017-Nov-21 06:00S 34°00' W 140°18'1 1.2 1023.0 17.8
2017-Nov-21 05:00S 33°59' W 140°18'1 0.8 1023.0 17.8
2017-Nov-21 04:00S 33°58' W 140°19'0 0.5 1022.8 17.9
2017-Nov-21 03:00S 33°58' W 140°18'1 1.3 1022.7 17.9
2017-Nov-21 02:00S 33°57' W 140°17'3 3.2 1022.8 17.9
2017-Nov-21 01:00S 33°54' W 140°19'1 0.2 1022.8 17.9
2017-Nov-20 19:00S 33°53' W 140°20'1 1.2 1024.3 17.8
2017-Nov-20 18:00S 33°54' W 140°19'1 0.6 1024.4 17.8
2017-Nov-20 17:00S 33°53' W 140°19'1 0.8 1024.6 17.8
2017-Nov-20 16:00S 33°53' W 140°19'1 0.6 1024.8 17.8
2017-Nov-20 15:00S 33°52' W 140°19'1 0.6 1024.7 17.8
2017-Nov-20 14:00S 33°52' W 140°19'0 0.0 1024.5 17.8
2017-Nov-20 12:00S 33°52' W 140°19'1 0.8 1024.6 17.8
2017-Nov-20 11:00S 33°51' W 140°20'0 0.0 1024.9 17.9
2017-Nov-20 10:00S 33°51' W 140°20'2 0.6 1025.5 17.9
2017-Nov-20 07:00S 33°49' W 140°20'1 1.2 1026.6 17.9
2017-Nov-20 06:00S 33°49' W 140°19'0 0.0 1026.5 17.9
2017-Nov-20 05:00S 33°49' W 140°19'1 0.8 1026.0 17.9
2017-Nov-20 04:00S 33°48' W 140°20'2 1.6 1025.4 17.9
2017-Nov-20 03:00S 33°47' W 140°18'0 0.0 1025.3 18.0
2017-Nov-20 02:00S 33°47' W 140°18'1 0.8 1025.3 18.0
2017-Nov-20 01:00S 33°48' W 140°17'0 0.0 1025.4 18.1
2017-Nov-20 00:00S 33°48' W 140°17'0 0.0 1025.7 18.1
2017-Nov-19 23:00S 33°48' W 140°17'1 0.3 1026.0 17.9
2017-Nov-19 19:00S 33°49' W 140°17'0 0.5 1026.8 17.6
2017-Nov-19 18:00S 33°49' W 140°18'0 0.5 1026.7 17.5
2017-Nov-19 17:00S 33°49' W 140°19'0 0.0 1026.7 17.5
2017-Nov-19 16:00S 33°49' W 140°19'1 0.8 1026.6 17.5
2017-Nov-19 15:00S 33°49' W 140°19'0 0.5 1026.2 17.5
2017-Nov-19 14:00S 33°49' W 140°19'0 0.0 1025.7 17.5
2017-Nov-19 13:00S 33°49' W 140°19'1 0.6 1025.6 17.5
2017-Nov-19 12:00S 33°48' W 140°19'0 0.0 1025.6 17.5
2017-Nov-19 11:00S 33°48' W 140°19'0 0.0 1025.7 17.5
2017-Nov-19 10:00S 33°48' W 140°19'2 0.8 1026.1 17.6
2017-Nov-19 08:00S 33°49' W 140°20'1 0.8 1027.1 17.6
2017-Nov-19 07:00S 33°49' W 140°19'0 0.0 1027.1 17.6
2017-Nov-19 06:00S 33°49' W 140°19'1 1.0 1026.8 17.6
2017-Nov-19 05:00S 33°49' W 140°20'0 0.5 1026.2 17.7
2017-Nov-19 04:00S 33°49' W 140°20'0 0.0 1026.2 17.8
2017-Nov-19 03:00S 33°49' W 140°20'0 0.0 1025.9 17.8
2017-Nov-19 02:00S 33°49' W 140°20'0 0.0 1025.8 17.9
2017-Nov-19 01:00S 33°49' W 140°20'0 0.0 1025.6 17.8
2017-Nov-19 00:00S 33°49' W 140°20'0 0.0 1025.7 17.8
2017-Nov-18 23:00S 33°49' W 140°20'1 0.3 1026.4 17.7
2017-Nov-18 19:00S 33°50' W 140°19'1 1.2 1027.3 17.4
2017-Nov-18 18:00S 33°49' W 140°19'2 1.6 1027.1 17.4
2017-Nov-18 17:00S 33°50' W 140°20'0 0.0 1027.2 17.4
2017-Nov-18 16:00S 33°50' W 140°20'0 0.5 1026.9 17.4
2017-Nov-18 15:00S 33°50' W 140°21'1 0.8 1026.6 17.4
2017-Nov-18 14:00S 33°49' W 140°20'1 0.6 1026.3 17.4
2017-Nov-18 13:00S 33°50' W 140°20'0 0.0 1026.0 17.4
2017-Nov-18 12:00S 33°50' W 140°20'0 0.0 1026.2 17.4
2017-Nov-18 11:00S 33°50' W 140°20'1 1.2 1026.6 17.5
2017-Nov-18 10:00S 33°50' W 140°22'1 0.3 1026.9 17.5
2017-Nov-18 07:00S 33°50' W 140°21'0 0.5 1027.9 17.6
2017-Nov-18 06:00S 33°50' W 140°22'0 0.0 1027.8 17.6
2017-Nov-18 05:00S 33°50' W 140°22'0 0.5 1027.0 17.6
2017-Nov-18 04:00S 33°50' W 140°21'0 0.5 1026.7 17.6
2017-Nov-18 03:00S 33°50' W 140°20'0 0.5 1026.6 17.6
2017-Nov-18 02:00S 33°50' W 140°21'0 0.5 1026.2 17.7
2017-Nov-18 01:00S 33°50' W 140°20'0 0.0 1026.0 17.7
2017-Nov-18 00:00S 33°50' W 140°20'0 0.0 1026.3 17.8
2017-Nov-17 23:00S 33°50' W 140°20'1 0.2 1026.9 17.7
2017-Nov-17 19:00S 33°50' W 140°20'0 0.0 1027.6 17.8
2017-Nov-17 18:00S 33°50' W 140°20'0 0.0 1027.8 17.8
2017-Nov-17 17:00S 33°50' W 140°20'0 0.5 1027.5 17.8
2017-Nov-17 16:00S 33°50' W 140°20'1 1.0 1027.1 17.8
2017-Nov-17 15:00S 33°50' W 140°19'0 0.5 1026.4 17.8
2017-Nov-17 14:00S 33°50' W 140°20'1 0.6 1025.7 17.8
2017-Nov-17 13:00S 33°50' W 140°20'0 0.0 1025.1 17.9
2017-Nov-17 12:00S 33°50' W 140°20'0 0.0 1024.8 17.9
2017-Nov-17 11:00S 33°50' W 140°20'3 0.9 1024.7 17.9
2017-Nov-17 08:00S 33°52' W 140°17'0 0.5 1024.9 17.9
2017-Nov-17 07:00S 33°52' W 140°18'1 1.2 1024.5 18.0
2017-Nov-17 06:00S 33°52' W 140°17'0 0.0 1024.1 18.0
2017-Nov-17 05:00S 33°52' W 140°17'1 1.0 1023.4 18.0
2017-Nov-17 04:00S 33°52' W 140°18'1 0.6 1022.6 18.0
2017-Nov-17 03:00S 33°53' W 140°18'1 0.6 1021.9 18.0
2017-Nov-17 02:00S 33°53' W 140°18'1 0.8 1021.1 18.1
2017-Nov-17 01:00S 33°53' W 140°19'0 0.0 1020.6 18.1
2017-Nov-17 00:00S 33°53' W 140°19'0 0.0 1020.1 18.1
2017-Nov-16 23:00S 33°53' W 140°19'1 0.2 1020.0 18.1
2017-Nov-16 18:00S 33°53' W 140°18'0 0.0 1017.7 17.9
2017-Nov-16 17:00S 33°53' W 140°18'0 0.5 1017.2 17.9
2017-Nov-16 16:00S 33°53' W 140°17'1 0.8 1016.3 17.8
2017-Nov-16 15:00S 33°54' W 140°17'0 0.0 1015.5 17.8
2017-Nov-16 14:00S 33°54' W 140°17'1 0.8 1014.4 17.8
2017-Nov-16 13:00S 33°53' W 140°16'1 0.6 1013.4 17.8
2017-Nov-16 11:00S 33°55' W 140°17'3 0.6 1012.1 17.9
2017-Nov-16 07:00S 33°57' W 140°18'1 0.6 1011.0 17.9
2017-Nov-16 06:00S 33°58' W 140°18'1 0.8 1010.6 17.9
2017-Nov-16 05:00S 33°58' W 140°19'2 1.6 1009.9 17.9
2017-Nov-16 04:00S 33°59' W 140°20'1 0.8 1009.6 18.0
2017-Nov-16 03:00S 33°58' W 140°21'0 0.0 1008.8 18.0
2017-Nov-16 02:00S 33°58' W 140°21'2 1.6 1009.0 18.0
2017-Nov-16 01:00S 33°57' W 140°22'0 0.0 1008.6 18.0
2017-Nov-16 00:00S 33°57' W 140°22'0 0.0 1008.9 18.0
2017-Nov-15 23:00S 33°57' W 140°22'3 1.2 1009.9 18.1
2017-Nov-15 20:00S 33°55' W 140°26'1 1.0 1011.8 18.0
2017-Nov-15 19:00S 33°55' W 140°27'0 0.0 1012.3 18.0
2017-Nov-15 18:00S 33°55' W 140°27'1 1.0 1012.2 17.9
2017-Nov-15 17:00S 33°55' W 140°28'1 1.2 1012.4 17.9
2017-Nov-15 16:00S 33°54' W 140°28'2 1.9 1012.5 17.9
2017-Nov-15 15:00S 33°53' W 140°30'0 0.0 1012.1 17.9
2017-Nov-15 13:00S 33°53' W 140°30'1 1.3 1011.6 18.0
2017-Nov-15 12:00S 33°52' W 140°29'0 0.0 1011.7 18.0
2017-Nov-15 11:00S 33°52' W 140°29'2 0.7 1012.2 18.0
2017-Nov-15 08:00S 33°51' W 140°32'0 0.5 1013.7 18.0
2017-Nov-15 07:00S 33°51' W 140°31'0 0.5 1013.9 18.0
2017-Nov-15 06:00S 33°51' W 140°32'0 0.0 1012.8 17.9
2017-Nov-15 05:00S 33°51' W 140°32'2 2.0 1012.5 18.0
2017-Nov-15 04:00S 33°51' W 140°34'0 0.5 1013.0 18.0
2017-Nov-15 03:00S 33°51' W 140°35'1 1.2 1013.4 18.0
2017-Nov-15 02:00S 33°50' W 140°36'1 1.5 1013.3 18.0
2017-Nov-15 01:00S 33°50' W 140°38'0 0.0 1013.4 18.0
2017-Nov-15 00:00S 33°50' W 140°38'5 1.0 1013.2 18.0
2017-Nov-14 19:00S 33°47' W 140°42'1 0.6 1014.7 18.0
2017-Nov-14 18:00S 33°46' W 140°42'1 1.2 1014.8 17.9
2017-Nov-14 17:00S 33°46' W 140°43'1 0.6 1014.9 17.8
2017-Nov-14 16:00S 33°45' W 140°43'1 0.6 1014.8 17.8
2017-Nov-14 15:00S 33°44' W 140°43'1 1.0 1014.4 17.7
2017-Nov-14 14:00S 33°44' W 140°44'1 0.8 1014.2 17.7
2017-Nov-14 13:00S 33°44' W 140°45'0 0.0 1013.9 17.8
2017-Nov-14 12:00S 33°44' W 140°45'0 0.0 1013.4 17.8
2017-Nov-14 11:00S 33°44' W 140°45'1 0.4 1014.0 17.9
2017-Nov-14 08:00S 33°43' W 140°46'0 0.5 1015.4 17.9
2017-Nov-14 07:00S 33°43' W 140°47'1 0.8 1015.2 18.0
2017-Nov-14 06:00S 33°44' W 140°47'0 0.5 1015.3 18.0
2017-Nov-14 05:00S 33°44' W 140°48'2 1.6 1014.8 18.0
2017-Nov-14 04:00S 33°43' W 140°50'1 1.2 1014.4 18.1
2017-Nov-14 03:00S 33°44' W 140°51'1 0.6 1014.1 18.3
2017-Nov-14 02:00S 33°43' W 140°51'1 1.5 1014.1 18.7
2017-Nov-14 01:00S 33°43' W 140°53'7 6.6 1014.0 18.9
2017-Nov-14 00:00S 33°38' W 140°58'0 0.0 1014.2 18.8
2017-Nov-13 19:00S 33°38' W 140°58'1 1.3 1014.8 18.0
2017-Nov-13 18:00S 33°37' W 140°59'0 0.0 1014.7 17.9
2017-Nov-13 17:00S 33°37' W 140°59'1 0.8 1014.3 17.6
2017-Nov-13 16:00S 33°37' W 140°58'0 0.5 1014.0 17.6
2017-Nov-13 15:00S 33°37' W 140°58'0 0.0 1013.7 17.6
2017-Nov-13 14:00S 33°37' W 140°58'0 0.0 1013.5 17.6
2017-Nov-13 13:00S 33°37' W 140°58'0 0.0 1013.6 17.6
2017-Nov-13 12:00S 33°37' W 140°58'0 0.0 1013.8 17.6
2017-Nov-13 11:00S 33°37' W 140°58'1 0.2 1013.7 17.6
2017-Nov-13 07:00S 33°37' W 140°59'0 0.5 1014.7 17.6
2017-Nov-13 06:00S 33°37' W 140°59'1 0.8 1014.4 17.7
2017-Nov-13 05:00S 33°37' W 141°00'2 1.6 1013.7 17.7
2017-Nov-13 04:00S 33°37' W 141°02'0 0.0 1014.0 17.8
2017-Nov-13 03:00S 33°37' W 141°02'1 1.2 1013.3 17.8
2017-Nov-13 02:00S 33°36' W 141°03'0 0.0 1013.9 17.9
2017-Nov-13 01:00S 33°36' W 141°03'0 0.0 1013.9 17.8
2017-Nov-13 00:00S 33°36' W 141°03'6 1.2 1014.4 17.8
2017-Nov-12 19:00S 33°30' W 141°04'1 1.3 1015.4 17.7
2017-Nov-12 18:00S 33°29' W 141°03'1 0.8 1014.7 17.4
2017-Nov-12 17:00S 33°28' W 141°02'0 0.0 1015.1 17.3
2017-Nov-12 16:00S 33°28' W 141°02'0 0.0 1014.9 17.2
2017-Nov-12 15:00S 33°28' W 141°02'0 0.0 1014.0 17.2
2017-Nov-12 14:00S 33°28' W 141°02'1 0.8 1013.9 17.2
2017-Nov-12 13:00S 33°29' W 141°02'1 0.8 1013.5 17.2
2017-Nov-12 12:00S 33°28' W 141°02'   1013.1 17.3

Dump ship's entire track history